sensor_id;sensor_type;location;lat;lon;timestamp;P1;durP1;ratioP1;P2;durP2;ratioP2
2624;SDS011;1322;53.256;10.386;2023-05-20T00:00:08;2.60;;;1.03;;
2624;SDS011;1322;53.256;10.386;2023-05-20T00:02:35;2.30;;;1.10;;
2624;SDS011;1322;53.256;10.386;2023-05-20T00:05:01;2.20;;;1.63;;
2624;SDS011;1322;53.256;10.386;2023-05-20T00:07:27;1.67;;;1.20;;
2624;SDS011;1322;53.256;10.386;2023-05-20T00:09:53;2.20;;;1.63;;
2624;SDS011;1322;53.256;10.386;2023-05-20T00:12:19;2.30;;;1.20;;
2624;SDS011;1322;53.256;10.386;2023-05-20T00:14:45;3.53;;;1.43;;
2624;SDS011;1322;53.256;10.386;2023-05-20T00:17:11;2.07;;;1.60;;
2624;SDS011;1322;53.256;10.386;2023-05-20T00:19:37;3.77;;;3.47;;
2624;SDS011;1322;53.256;10.386;2023-05-20T00:22:03;1.70;;;1.10;;
2624;SDS011;1322;53.256;10.386;2023-05-20T00:24:29;2.10;;;1.50;;
2624;SDS011;1322;53.256;10.386;2023-05-20T00:26:55;2.20;;;1.10;;
2624;SDS011;1322;53.256;10.386;2023-05-20T00:29:21;6.27;;;1.70;;
2624;SDS011;1322;53.256;10.386;2023-05-20T00:31:47;1.83;;;1.53;;
2624;SDS011;1322;53.256;10.386;2023-05-20T00:34:13;2.80;;;1.20;;
2624;SDS011;1322;53.256;10.386;2023-05-20T00:36:39;2.53;;;1.20;;
2624;SDS011;1322;53.256;10.386;2023-05-20T00:39:07;4.60;;;1.50;;
2624;SDS011;1322;53.256;10.386;2023-05-20T00:41:33;3.07;;;1.50;;
2624;SDS011;1322;53.256;10.386;2023-05-20T00:43:59;2.03;;;1.13;;
2624;SDS011;1322;53.256;10.386;2023-05-20T00:46:25;2.47;;;1.40;;
2624;SDS011;1322;53.256;10.386;2023-05-20T00:48:53;2.60;;;1.60;;
2624;SDS011;1322;53.256;10.386;2023-05-20T00:51:19;3.17;;;1.13;;
2624;SDS011;1322;53.256;10.386;2023-05-20T00:53:45;1.90;;;1.40;;
2624;SDS011;1322;53.256;10.386;2023-05-20T00:56:15;2.43;;;1.00;;
2624;SDS011;1322;53.256;10.386;2023-05-20T00:58:41;1.40;;;1.23;;
2624;SDS011;1322;53.256;10.386;2023-05-20T01:01:07;3.20;;;1.43;;
2624;SDS011;1322;53.256;10.386;2023-05-20T01:03:33;2.00;;;1.30;;
2624;SDS011;1322;53.256;10.386;2023-05-20T01:06:00;5.27;;;1.67;;
2624;SDS011;1322;53.256;10.386;2023-05-20T01:08:26;2.30;;;1.63;;
2624;SDS011;1322;53.256;10.386;2023-05-20T01:11:36;2.60;;;1.13;;
2624;SDS011;1322;53.256;10.386;2023-05-20T01:13:51;1.80;;;1.20;;
2624;SDS011;1322;53.256;10.386;2023-05-20T01:16:23;2.00;;;1.23;;
2624;SDS011;1322;53.256;10.386;2023-05-20T01:18:49;1.70;;;1.00;;
2624;SDS011;1322;53.256;10.386;2023-05-20T01:21:19;3.10;;;1.43;;
2624;SDS011;1322;53.256;10.386;2023-05-20T01:23:46;1.60;;;1.00;;
2624;SDS011;1322;53.256;10.386;2023-05-20T01:26:12;1.87;;;1.27;;
2624;SDS011;1322;53.256;10.386;2023-05-20T01:28:38;3.40;;;1.30;;
2624;SDS011;1322;53.256;10.386;2023-05-20T01:31:11;2.23;;;1.20;;
2624;SDS011;1322;53.256;10.386;2023-05-20T01:33:43;1.93;;;1.43;;
2624;SDS011;1322;53.256;10.386;2023-05-20T01:36:09;1.80;;;1.40;;
2624;SDS011;1322;53.256;10.386;2023-05-20T01:38:36;2.00;;;1.20;;
2624;SDS011;1322;53.256;10.386;2023-05-20T01:41:04;1.93;;;1.37;;
2624;SDS011;1322;53.256;10.386;2023-05-20T01:43:31;3.60;;;1.43;;
2624;SDS011;1322;53.256;10.386;2023-05-20T01:45:57;2.67;;;1.47;;
2624;SDS011;1322;53.256;10.386;2023-05-20T01:48:23;1.60;;;1.20;;
2624;SDS011;1322;53.256;10.386;2023-05-20T01:50:49;1.87;;;1.30;;
2624;SDS011;1322;53.256;10.386;2023-05-20T01:53:15;8.40;;;1.60;;
2624;SDS011;1322;53.256;10.386;2023-05-20T01:55:41;1.47;;;1.10;;
2624;SDS011;1322;53.256;10.386;2023-05-20T01:58:07;1.60;;;1.10;;
2624;SDS011;1322;53.256;10.386;2023-05-20T02:00:33;5.43;;;1.17;;
2624;SDS011;1322;53.256;10.386;2023-05-20T02:02:59;3.40;;;1.20;;
2624;SDS011;1322;53.256;10.386;2023-05-20T02:05:27;2.90;;;1.67;;
2624;SDS011;1322;53.256;10.386;2023-05-20T02:07:53;1.60;;;1.30;;
2624;SDS011;1322;53.256;10.386;2023-05-20T02:10:19;3.37;;;1.50;;
2624;SDS011;1322;53.256;10.386;2023-05-20T02:12:45;2.10;;;1.13;;
2624;SDS011;1322;53.256;10.386;2023-05-20T02:15:13;2.10;;;1.40;;
2624;SDS011;1322;53.256;10.386;2023-05-20T02:17:39;1.73;;;1.17;;
2624;SDS011;1322;53.256;10.386;2023-05-20T02:20:07;2.13;;;1.37;;
2624;SDS011;1322;53.256;10.386;2023-05-20T02:22:34;2.63;;;1.80;;
2624;SDS011;1322;53.256;10.386;2023-05-20T02:25:00;3.20;;;1.30;;
2624;SDS011;1322;53.256;10.386;2023-05-20T02:27:26;3.07;;;1.40;;
2624;SDS011;1322;53.256;10.386;2023-05-20T02:29:52;2.40;;;1.20;;
2624;SDS011;1322;53.256;10.386;2023-05-20T02:32:18;1.70;;;1.17;;
2624;SDS011;1322;53.256;10.386;2023-05-20T02:34:45;7.83;;;1.50;;
2624;SDS011;1322;53.256;10.386;2023-05-20T02:37:11;2.50;;;1.67;;
2624;SDS011;1322;53.256;10.386;2023-05-20T02:39:37;3.50;;;1.30;;
2624;SDS011;1322;53.256;10.386;2023-05-20T02:42:03;1.60;;;1.40;;
2624;SDS011;1322;53.256;10.386;2023-05-20T02:44:29;2.10;;;1.40;;
2624;SDS011;1322;53.256;10.386;2023-05-20T02:46:55;2.43;;;1.27;;
2624;SDS011;1322;53.256;10.386;2023-05-20T02:49:21;2.60;;;1.10;;
2624;SDS011;1322;53.256;10.386;2023-05-20T02:51:48;3.93;;;1.20;;
2624;SDS011;1322;53.256;10.386;2023-05-20T02:54:14;2.63;;;1.10;;
2624;SDS011;1322;53.256;10.386;2023-05-20T02:56:40;1.60;;;1.50;;
2624;SDS011;1322;53.256;10.386;2023-05-20T02:59:06;4.60;;;2.50;;
2624;SDS011;1322;53.256;10.386;2023-05-20T03:01:33;4.87;;;1.47;;
2624;SDS011;1322;53.256;10.386;2023-05-20T03:04:00;2.40;;;1.63;;
2624;SDS011;1322;53.256;10.386;2023-05-20T03:06:26;5.97;;;1.97;;
2624;SDS011;1322;53.256;10.386;2023-05-20T03:08:54;5.17;;;1.30;;
2624;SDS011;1322;53.256;10.386;2023-05-20T03:11:20;2.77;;;1.47;;
2624;SDS011;1322;53.256;10.386;2023-05-20T03:13:46;3.80;;;1.50;;
2624;SDS011;1322;53.256;10.386;2023-05-20T03:16:12;2.60;;;1.40;;
2624;SDS011;1322;53.256;10.386;2023-05-20T03:18:38;1.80;;;1.27;;
2624;SDS011;1322;53.256;10.386;2023-05-20T03:21:04;3.30;;;1.30;;
2624;SDS011;1322;53.256;10.386;2023-05-20T03:23:30;2.10;;;1.30;;
2624;SDS011;1322;53.256;10.386;2023-05-20T03:25:56;1.90;;;1.30;;
2624;SDS011;1322;53.256;10.386;2023-05-20T03:28:22;1.83;;;1.60;;
2624;SDS011;1322;53.256;10.386;2023-05-20T03:30:48;2.80;;;1.17;;
2624;SDS011;1322;53.256;10.386;2023-05-20T03:33:14;1.73;;;1.20;;
2624;SDS011;1322;53.256;10.386;2023-05-20T03:35:40;2.20;;;1.37;;
2624;SDS011;1322;53.256;10.386;2023-05-20T03:38:06;3.07;;;2.37;;
2624;SDS011;1322;53.256;10.386;2023-05-20T03:40:32;2.17;;;1.40;;
2624;SDS011;1322;53.256;10.386;2023-05-20T03:42:58;1.90;;;1.30;;
2624;SDS011;1322;53.256;10.386;2023-05-20T03:45:25;1.63;;;1.53;;
2624;SDS011;1322;53.256;10.386;2023-05-20T03:47:51;2.90;;;1.60;;
2624;SDS011;1322;53.256;10.386;2023-05-20T03:50:17;2.07;;;1.30;;
2624;SDS011;1322;53.256;10.386;2023-05-20T03:52:43;3.37;;;1.60;;
2624;SDS011;1322;53.256;10.386;2023-05-20T03:55:09;3.00;;;1.40;;
2624;SDS011;1322;53.256;10.386;2023-05-20T03:57:35;2.37;;;1.20;;
2624;SDS011;1322;53.256;10.386;2023-05-20T04:00:02;2.87;;;1.60;;
2624;SDS011;1322;53.256;10.386;2023-05-20T04:02:34;1.67;;;1.33;;
2624;SDS011;1322;53.256;10.386;2023-05-20T04:05:00;1.87;;;1.40;;
2624;SDS011;1322;53.256;10.386;2023-05-20T04:07:26;3.10;;;1.43;;
2624;SDS011;1322;53.256;10.386;2023-05-20T04:09:53;1.60;;;1.13;;
2624;SDS011;1322;53.256;10.386;2023-05-20T04:12:20;2.00;;;1.80;;
2624;SDS011;1322;53.256;10.386;2023-05-20T04:14:46;5.23;;;1.30;;
2624;SDS011;1322;53.256;10.386;2023-05-20T04:17:14;3.90;;;1.23;;
2624;SDS011;1322;53.256;10.386;2023-05-20T04:19:40;1.40;;;1.10;;
2624;SDS011;1322;53.256;10.386;2023-05-20T04:22:06;5.70;;;2.00;;
2624;SDS011;1322;53.256;10.386;2023-05-20T04:24:32;6.63;;;1.67;;
2624;SDS011;1322;53.256;10.386;2023-05-20T04:26:58;2.90;;;1.50;;
2624;SDS011;1322;53.256;10.386;2023-05-20T04:29:24;3.97;;;2.00;;
2624;SDS011;1322;53.256;10.386;2023-05-20T04:31:50;4.23;;;1.80;;
2624;SDS011;1322;53.256;10.386;2023-05-20T04:34:17;3.43;;;1.30;;
2624;SDS011;1322;53.256;10.386;2023-05-20T04:36:50;2.30;;;1.50;;
2624;SDS011;1322;53.256;10.386;2023-05-20T04:39:16;2.50;;;1.57;;
2624;SDS011;1322;53.256;10.386;2023-05-20T04:41:44;2.50;;;1.30;;
2624;SDS011;1322;53.256;10.386;2023-05-20T04:44:12;3.47;;;1.80;;
2624;SDS011;1322;53.256;10.386;2023-05-20T04:46:38;2.07;;;1.40;;
2624;SDS011;1322;53.256;10.386;2023-05-20T04:49:05;4.03;;;1.77;;
2624;SDS011;1322;53.256;10.386;2023-05-20T04:51:35;2.73;;;1.40;;
2624;SDS011;1322;53.256;10.386;2023-05-20T04:54:01;1.90;;;1.20;;
2624;SDS011;1322;53.256;10.386;2023-05-20T04:56:27;2.27;;;1.53;;
2624;SDS011;1322;53.256;10.386;2023-05-20T04:58:53;2.43;;;1.47;;
2624;SDS011;1322;53.256;10.386;2023-05-20T05:01:20;3.33;;;1.40;;
2624;SDS011;1322;53.256;10.386;2023-05-20T05:03:46;2.23;;;1.23;;
2624;SDS011;1322;53.256;10.386;2023-05-20T05:06:12;2.77;;;1.50;;
2624;SDS011;1322;53.256;10.386;2023-05-20T05:08:38;2.83;;;1.70;;
2624;SDS011;1322;53.256;10.386;2023-05-20T05:11:04;3.40;;;1.50;;
2624;SDS011;1322;53.256;10.386;2023-05-20T05:13:30;3.50;;;1.97;;
2624;SDS011;1322;53.256;10.386;2023-05-20T05:15:57;4.37;;;1.70;;
2624;SDS011;1322;53.256;10.386;2023-05-20T05:18:24;2.80;;;1.67;;
2624;SDS011;1322;53.256;10.386;2023-05-20T05:20:57;3.00;;;1.43;;
2624;SDS011;1322;53.256;10.386;2023-05-20T05:23:26;8.00;;;1.73;;
2624;SDS011;1322;53.256;10.386;2023-05-20T05:25:52;2.57;;;1.83;;
2624;SDS011;1322;53.256;10.386;2023-05-20T05:28:18;2.50;;;1.50;;
2624;SDS011;1322;53.256;10.386;2023-05-20T05:30:44;4.73;;;2.27;;
2624;SDS011;1322;53.256;10.386;2023-05-20T05:33:10;2.30;;;1.27;;
2624;SDS011;1322;53.256;10.386;2023-05-20T05:35:37;6.87;;;2.17;;
2624;SDS011;1322;53.256;10.386;2023-05-20T05:38:03;3.50;;;1.63;;
2624;SDS011;1322;53.256;10.386;2023-05-20T05:40:29;3.00;;;1.60;;
2624;SDS011;1322;53.256;10.386;2023-05-20T05:42:55;5.20;;;1.50;;
2624;SDS011;1322;53.256;10.386;2023-05-20T05:45:21;1.67;;;1.50;;
2624;SDS011;1322;53.256;10.386;2023-05-20T05:47:47;5.10;;;1.80;;
2624;SDS011;1322;53.256;10.386;2023-05-20T05:50:13;2.23;;;1.67;;
2624;SDS011;1322;53.256;10.386;2023-05-20T05:52:39;2.77;;;1.53;;
2624;SDS011;1322;53.256;10.386;2023-05-20T05:55:06;1.87;;;1.40;;
2624;SDS011;1322;53.256;10.386;2023-05-20T05:57:32;3.10;;;1.77;;
2624;SDS011;1322;53.256;10.386;2023-05-20T05:59:58;4.80;;;1.93;;
2624;SDS011;1322;53.256;10.386;2023-05-20T06:02:25;4.40;;;2.30;;
2624;SDS011;1322;53.256;10.386;2023-05-20T06:04:51;3.80;;;1.73;;
2624;SDS011;1322;53.256;10.386;2023-05-20T06:07:17;4.70;;;1.90;;
2624;SDS011;1322;53.256;10.386;2023-05-20T06:09:43;3.20;;;1.90;;
2624;SDS011;1322;53.256;10.386;2023-05-20T06:12:09;3.03;;;1.43;;
2624;SDS011;1322;53.256;10.386;2023-05-20T06:14:35;6.47;;;1.70;;
2624;SDS011;1322;53.256;10.386;2023-05-20T06:17:02;2.30;;;1.80;;
2624;SDS011;1322;53.256;10.386;2023-05-20T06:19:28;4.83;;;1.73;;
2624;SDS011;1322;53.256;10.386;2023-05-20T06:21:58;3.57;;;1.73;;
2624;SDS011;1322;53.256;10.386;2023-05-20T06:24:24;3.50;;;2.17;;
2624;SDS011;1322;53.256;10.386;2023-05-20T06:26:50;2.70;;;1.80;;
2624;SDS011;1322;53.256;10.386;2023-05-20T06:29:16;6.57;;;2.00;;
2624;SDS011;1322;53.256;10.386;2023-05-20T06:31:42;3.00;;;2.00;;
2624;SDS011;1322;53.256;10.386;2023-05-20T06:34:08;5.40;;;2.13;;
2624;SDS011;1322;53.256;10.386;2023-05-20T06:36:34;1.83;;;1.67;;
2624;SDS011;1322;53.256;10.386;2023-05-20T06:39:00;5.57;;;2.13;;
2624;SDS011;1322;53.256;10.386;2023-05-20T06:41:26;3.07;;;1.87;;
2624;SDS011;1322;53.256;10.386;2023-05-20T06:43:52;3.40;;;1.90;;
2624;SDS011;1322;53.256;10.386;2023-05-20T06:46:18;3.60;;;2.13;;
2624;SDS011;1322;53.256;10.386;2023-05-20T06:48:44;2.83;;;2.10;;
2624;SDS011;1322;53.256;10.386;2023-05-20T06:51:10;2.87;;;1.70;;
2624;SDS011;1322;53.256;10.386;2023-05-20T06:53:36;6.83;;;1.80;;
2624;SDS011;1322;53.256;10.386;2023-05-20T06:56:02;2.53;;;2.17;;
2624;SDS011;1322;53.256;10.386;2023-05-20T06:58:28;3.50;;;1.63;;
2624;SDS011;1322;53.256;10.386;2023-05-20T07:00:55;2.93;;;2.00;;
2624;SDS011;1322;53.256;10.386;2023-05-20T07:03:21;3.00;;;2.07;;
2624;SDS011;1322;53.256;10.386;2023-05-20T07:05:47;4.53;;;2.17;;
2624;SDS011;1322;53.256;10.386;2023-05-20T07:08:13;4.87;;;2.20;;
2624;SDS011;1322;53.256;10.386;2023-05-20T07:10:43;3.33;;;2.33;;
2624;SDS011;1322;53.256;10.386;2023-05-20T07:13:10;2.90;;;1.43;;
2624;SDS011;1322;53.256;10.386;2023-05-20T07:15:37;3.67;;;1.97;;
2624;SDS011;1322;53.256;10.386;2023-05-20T07:18:03;1.70;;;1.50;;
2624;SDS011;1322;53.256;10.386;2023-05-20T07:20:29;1.77;;;1.40;;
2624;SDS011;1322;53.256;10.386;2023-05-20T07:22:55;2.37;;;1.70;;
2624;SDS011;1322;53.256;10.386;2023-05-20T07:25:21;3.43;;;1.57;;
2624;SDS011;1322;53.256;10.386;2023-05-20T07:27:47;3.40;;;1.90;;
2624;SDS011;1322;53.256;10.386;2023-05-20T07:30:13;3.20;;;1.80;;
2624;SDS011;1322;53.256;10.386;2023-05-20T07:32:39;5.10;;;2.33;;
2624;SDS011;1322;53.256;10.386;2023-05-20T07:35:05;4.80;;;2.13;;
2624;SDS011;1322;53.256;10.386;2023-05-20T07:37:31;3.90;;;2.00;;
2624;SDS011;1322;53.256;10.386;2023-05-20T07:39:57;3.53;;;2.33;;
2624;SDS011;1322;53.256;10.386;2023-05-20T07:42:23;3.40;;;2.00;;
2624;SDS011;1322;53.256;10.386;2023-05-20T07:44:49;3.17;;;2.20;;
2624;SDS011;1322;53.256;10.386;2023-05-20T07:47:15;8.03;;;2.53;;
2624;SDS011;1322;53.256;10.386;2023-05-20T07:49:41;2.50;;;2.13;;
2624;SDS011;1322;53.256;10.386;2023-05-20T07:52:08;7.70;;;2.20;;
2624;SDS011;1322;53.256;10.386;2023-05-20T07:54:34;2.50;;;1.90;;
2624;SDS011;1322;53.256;10.386;2023-05-20T07:57:00;4.33;;;2.30;;
2624;SDS011;1322;53.256;10.386;2023-05-20T07:59:26;4.27;;;2.17;;
2624;SDS011;1322;53.256;10.386;2023-05-20T08:01:52;2.80;;;2.23;;
2624;SDS011;1322;53.256;10.386;2023-05-20T08:04:18;5.60;;;3.10;;
2624;SDS011;1322;53.256;10.386;2023-05-20T08:06:44;3.83;;;1.83;;
2624;SDS011;1322;53.256;10.386;2023-05-20T08:09:10;3.47;;;2.10;;
2624;SDS011;1322;53.256;10.386;2023-05-20T08:11:36;4.80;;;1.70;;
2624;SDS011;1322;53.256;10.386;2023-05-20T08:14:02;2.57;;;1.70;;
2624;SDS011;1322;53.256;10.386;2023-05-20T08:16:28;2.50;;;2.10;;
2624;SDS011;1322;53.256;10.386;2023-05-20T08:18:54;2.50;;;1.73;;
2624;SDS011;1322;53.256;10.386;2023-05-20T08:21:20;2.73;;;2.03;;
2624;SDS011;1322;53.256;10.386;2023-05-20T08:23:46;6.57;;;2.40;;
2624;SDS011;1322;53.256;10.386;2023-05-20T08:26:12;5.73;;;2.30;;
2624;SDS011;1322;53.256;10.386;2023-05-20T08:28:38;4.57;;;2.10;;
2624;SDS011;1322;53.256;10.386;2023-05-20T08:31:04;2.00;;;1.63;;
2624;SDS011;1322;53.256;10.386;2023-05-20T08:33:30;3.47;;;2.40;;
2624;SDS011;1322;53.256;10.386;2023-05-20T08:35:56;2.90;;;2.10;;
2624;SDS011;1322;53.256;10.386;2023-05-20T08:38:22;2.10;;;1.50;;
2624;SDS011;1322;53.256;10.386;2023-05-20T08:40:57;3.43;;;1.90;;
2624;SDS011;1322;53.256;10.386;2023-05-20T08:43:23;4.33;;;1.80;;
2624;SDS011;1322;53.256;10.386;2023-05-20T08:45:49;2.03;;;1.67;;
2624;SDS011;1322;53.256;10.386;2023-05-20T08:48:17;4.17;;;1.70;;
2624;SDS011;1322;53.256;10.386;2023-05-20T08:50:45;2.03;;;1.40;;
2624;SDS011;1322;53.256;10.386;2023-05-20T08:53:14;4.50;;;2.17;;
2624;SDS011;1322;53.256;10.386;2023-05-20T08:55:51;3.13;;;1.70;;
2624;SDS011;1322;53.256;10.386;2023-05-20T08:58:20;3.83;;;1.73;;
2624;SDS011;1322;53.256;10.386;2023-05-20T09:00:47;3.00;;;1.90;;
2624;SDS011;1322;53.256;10.386;2023-05-20T09:03:13;2.83;;;1.80;;
2624;SDS011;1322;53.256;10.386;2023-05-20T09:05:39;2.90;;;2.20;;
2624;SDS011;1322;53.256;10.386;2023-05-20T09:08:06;3.00;;;1.67;;
2624;SDS011;1322;53.256;10.386;2023-05-20T09:10:32;6.53;;;2.23;;
2624;SDS011;1322;53.256;10.386;2023-05-20T09:13:01;1.90;;;1.47;;
2624;SDS011;1322;53.256;10.386;2023-05-20T09:15:28;2.70;;;2.10;;
2624;SDS011;1322;53.256;10.386;2023-05-20T09:17:54;4.97;;;2.00;;
2624;SDS011;1322;53.256;10.386;2023-05-20T09:20:21;3.90;;;1.83;;
2624;SDS011;1322;53.256;10.386;2023-05-20T09:22:49;2.10;;;1.90;;
2624;SDS011;1322;53.256;10.386;2023-05-20T09:25:21;4.60;;;1.43;;
2624;SDS011;1322;53.256;10.386;2023-05-20T09:27:49;2.13;;;1.70;;
2624;SDS011;1322;53.256;10.386;2023-05-20T09:30:18;4.00;;;1.50;;
2624;SDS011;1322;53.256;10.386;2023-05-20T09:32:44;3.77;;;1.77;;
2624;SDS011;1322;53.256;10.386;2023-05-20T09:35:14;3.90;;;1.33;;
2624;SDS011;1322;53.256;10.386;2023-05-20T09:37:43;2.10;;;1.60;;
2624;SDS011;1322;53.256;10.386;2023-05-20T09:40:11;3.43;;;1.90;;
2624;SDS011;1322;53.256;10.386;2023-05-20T09:45:05;2.83;;;1.60;;
2624;SDS011;1322;53.256;10.386;2023-05-20T09:47:33;5.43;;;2.03;;
2624;SDS011;1322;53.256;10.386;2023-05-20T09:49:59;3.07;;;2.00;;
2624;SDS011;1322;53.256;10.386;2023-05-20T09:52:28;2.10;;;1.90;;
2624;SDS011;1322;53.256;10.386;2023-05-20T09:54:54;2.43;;;1.33;;
2624;SDS011;1322;53.256;10.386;2023-05-20T09:57:21;2.27;;;1.80;;
2624;SDS011;1322;53.256;10.386;2023-05-20T09:59:47;4.53;;;1.90;;
2624;SDS011;1322;53.256;10.386;2023-05-20T10:02:15;1.93;;;1.60;;
2624;SDS011;1322;53.256;10.386;2023-05-20T10:04:43;4.13;;;1.40;;
2624;SDS011;1322;53.256;10.386;2023-05-20T10:07:19;2.40;;;1.60;;
2624;SDS011;1322;53.256;10.386;2023-05-20T10:21:02;7.33;;;2.23;;
2624;SDS011;1322;53.256;10.386;2023-05-20T10:23:29;2.50;;;2.17;;
2624;SDS011;1322;53.256;10.386;2023-05-20T10:25:56;5.07;;;2.50;;
2624;SDS011;1322;53.256;10.386;2023-05-20T10:28:32;2.33;;;1.60;;
2624;SDS011;1322;53.256;10.386;2023-05-20T10:31:00;2.20;;;1.70;;
2624;SDS011;1322;53.256;10.386;2023-05-20T10:33:27;2.50;;;1.70;;
2624;SDS011;1322;53.256;10.386;2023-05-20T10:35:54;2.83;;;1.80;;
2624;SDS011;1322;53.256;10.386;2023-05-20T10:38:23;3.17;;;1.93;;
2624;SDS011;1322;53.256;10.386;2023-05-20T10:40:49;3.70;;;1.87;;
2624;SDS011;1322;53.256;10.386;2023-05-20T10:43:16;3.77;;;1.50;;
2624;SDS011;1322;53.256;10.386;2023-05-20T10:45:51;3.80;;;2.00;;
2624;SDS011;1322;53.256;10.386;2023-05-20T10:48:19;5.17;;;2.20;;
2624;SDS011;1322;53.256;10.386;2023-05-20T10:50:58;4.47;;;1.87;;
2624;SDS011;1322;53.256;10.386;2023-05-20T10:53:28;4.20;;;1.80;;
2624;SDS011;1322;53.256;10.386;2023-05-20T10:56:02;2.53;;;1.77;;
2624;SDS011;1322;53.256;10.386;2023-05-20T10:58:35;2.00;;;1.70;;
2624;SDS011;1322;53.256;10.386;2023-05-20T11:01:02;3.30;;;1.90;;
2624;SDS011;1322;53.256;10.386;2023-05-20T11:03:28;2.47;;;2.17;;
2624;SDS011;1322;53.256;10.386;2023-05-20T11:05:55;3.33;;;2.40;;
2624;SDS011;1322;53.256;10.386;2023-05-20T11:08:21;5.43;;;2.40;;
2624;SDS011;1322;53.256;10.386;2023-05-20T11:10:47;4.10;;;2.33;;
2624;SDS011;1322;53.256;10.386;2023-05-20T11:13:13;5.07;;;1.90;;
2624;SDS011;1322;53.256;10.386;2023-05-20T11:15:39;2.77;;;1.83;;
2624;SDS011;1322;53.256;10.386;2023-05-20T11:18:06;3.37;;;2.20;;
2624;SDS011;1322;53.256;10.386;2023-05-20T11:20:32;2.30;;;1.90;;
2624;SDS011;1322;53.256;10.386;2023-05-20T11:22:59;2.37;;;1.93;;
2624;SDS011;1322;53.256;10.386;2023-05-20T11:25:25;2.83;;;1.80;;
2624;SDS011;1322;53.256;10.386;2023-05-20T11:27:52;3.53;;;2.40;;
2624;SDS011;1322;53.256;10.386;2023-05-20T11:30:18;6.20;;;2.10;;
2624;SDS011;1322;53.256;10.386;2023-05-20T11:32:57;3.43;;;2.50;;
2624;SDS011;1322;53.256;10.386;2023-05-20T11:35:25;5.93;;;2.30;;
2624;SDS011;1322;53.256;10.386;2023-05-20T11:38:00;3.43;;;1.93;;
2624;SDS011;1322;53.256;10.386;2023-05-20T11:40:27;3.30;;;2.00;;
2624;SDS011;1322;53.256;10.386;2023-05-20T11:42:57;2.90;;;2.07;;
2624;SDS011;1322;53.256;10.386;2023-05-20T11:45:25;3.93;;;2.17;;
2624;SDS011;1322;53.256;10.386;2023-05-20T11:47:57;4.60;;;2.07;;
2624;SDS011;1322;53.256;10.386;2023-05-20T11:50:24;4.33;;;2.40;;
2624;SDS011;1322;53.256;10.386;2023-05-20T11:52:55;2.83;;;2.20;;
2624;SDS011;1322;53.256;10.386;2023-05-20T11:55:26;3.30;;;2.30;;
2624;SDS011;1322;53.256;10.386;2023-05-20T11:57:52;3.60;;;2.27;;
2624;SDS011;1322;53.256;10.386;2023-05-20T12:00:19;3.80;;;2.40;;
2624;SDS011;1322;53.256;10.386;2023-05-20T12:02:45;4.20;;;2.70;;
2624;SDS011;1322;53.256;10.386;2023-05-20T12:05:11;6.33;;;3.40;;
2624;SDS011;1322;53.256;10.386;2023-05-20T12:07:37;5.27;;;2.80;;
2624;SDS011;1322;53.256;10.386;2023-05-20T12:10:04;4.03;;;2.60;;
2624;SDS011;1322;53.256;10.386;2023-05-20T12:12:30;4.47;;;2.60;;
2624;SDS011;1322;53.256;10.386;2023-05-20T12:14:57;3.53;;;2.57;;
2624;SDS011;1322;53.256;10.386;2023-05-20T12:17:23;4.03;;;2.60;;
2624;SDS011;1322;53.256;10.386;2023-05-20T12:19:49;5.00;;;3.10;;
2624;SDS011;1322;53.256;10.386;2023-05-20T12:22:15;5.57;;;2.47;;
2624;SDS011;1322;53.256;10.386;2023-05-20T12:24:41;3.27;;;2.70;;
2624;SDS011;1322;53.256;10.386;2023-05-20T12:27:07;3.33;;;3.00;;
2624;SDS011;1322;53.256;10.386;2023-05-20T12:29:33;6.60;;;2.90;;
2624;SDS011;1322;53.256;10.386;2023-05-20T12:31:59;6.00;;;2.50;;
2624;SDS011;1322;53.256;10.386;2023-05-20T12:34:25;4.30;;;2.57;;
2624;SDS011;1322;53.256;10.386;2023-05-20T12:36:51;3.50;;;2.27;;
2624;SDS011;1322;53.256;10.386;2023-05-20T12:39:17;5.33;;;3.00;;
2624;SDS011;1322;53.256;10.386;2023-05-20T12:41:44;6.23;;;2.73;;
2624;SDS011;1322;53.256;10.386;2023-05-20T12:44:10;4.53;;;3.17;;
2624;SDS011;1322;53.256;10.386;2023-05-20T12:46:36;4.67;;;2.90;;
2624;SDS011;1322;53.256;10.386;2023-05-20T12:49:02;4.23;;;3.20;;
2624;SDS011;1322;53.256;10.386;2023-05-20T12:51:28;6.27;;;3.60;;
2624;SDS011;1322;53.256;10.386;2023-05-20T12:53:54;5.13;;;2.97;;
2624;SDS011;1322;53.256;10.386;2023-05-20T12:56:20;3.60;;;2.90;;
2624;SDS011;1322;53.256;10.386;2023-05-20T12:58:50;3.90;;;2.80;;
2624;SDS011;1322;53.256;10.386;2023-05-20T13:01:16;3.80;;;3.37;;
2624;SDS011;1322;53.256;10.386;2023-05-20T13:03:42;4.30;;;3.90;;
2624;SDS011;1322;53.256;10.386;2023-05-20T13:06:08;3.43;;;2.70;;
2624;SDS011;1322;53.256;10.386;2023-05-20T13:08:34;4.87;;;3.43;;
2624;SDS011;1322;53.256;10.386;2023-05-20T13:11:00;4.70;;;2.97;;
2624;SDS011;1322;53.256;10.386;2023-05-20T13:13:26;4.70;;;2.80;;
2624;SDS011;1322;53.256;10.386;2023-05-20T13:15:53;5.47;;;3.10;;
2624;SDS011;1322;53.256;10.386;2023-05-20T13:18:19;2.90;;;2.47;;
2624;SDS011;1322;53.256;10.386;2023-05-20T13:20:45;4.53;;;2.83;;
2624;SDS011;1322;53.256;10.386;2023-05-20T13:23:11;6.57;;;3.10;;
2624;SDS011;1322;53.256;10.386;2023-05-20T13:25:37;3.13;;;2.60;;
2624;SDS011;1322;53.256;10.386;2023-05-20T13:28:04;3.37;;;2.23;;
2624;SDS011;1322;53.256;10.386;2023-05-20T13:30:29;3.50;;;2.80;;
2624;SDS011;1322;53.256;10.386;2023-05-20T13:32:56;4.00;;;3.13;;
2624;SDS011;1322;53.256;10.386;2023-05-20T13:35:22;3.63;;;2.73;;
2624;SDS011;1322;53.256;10.386;2023-05-20T13:37:48;3.17;;;2.80;;
2624;SDS011;1322;53.256;10.386;2023-05-20T13:40:14;5.10;;;2.80;;
2624;SDS011;1322;53.256;10.386;2023-05-20T13:42:41;3.57;;;2.57;;
2624;SDS011;1322;53.256;10.386;2023-05-20T13:45:08;3.30;;;2.70;;
2624;SDS011;1322;53.256;10.386;2023-05-20T13:47:34;4.80;;;3.30;;
2624;SDS011;1322;53.256;10.386;2023-05-20T13:50:00;3.87;;;2.97;;
2624;SDS011;1322;53.256;10.386;2023-05-20T13:52:26;3.63;;;2.70;;
2624;SDS011;1322;53.256;10.386;2023-05-20T13:54:52;2.83;;;2.43;;
2624;SDS011;1322;53.256;10.386;2023-05-20T13:57:18;4.30;;;3.07;;
2624;SDS011;1322;53.256;10.386;2023-05-20T13:59:44;5.40;;;2.60;;
2624;SDS011;1322;53.256;10.386;2023-05-20T14:02:10;4.60;;;3.03;;
2624;SDS011;1322;53.256;10.386;2023-05-20T14:04:36;4.30;;;2.70;;
2624;SDS011;1322;53.256;10.386;2023-05-20T14:07:06;8.97;;;2.80;;
2624;SDS011;1322;53.256;10.386;2023-05-20T14:09:32;3.70;;;2.80;;
2624;SDS011;1322;53.256;10.386;2023-05-20T14:11:58;2.70;;;2.47;;
2624;SDS011;1322;53.256;10.386;2023-05-20T14:14:24;2.87;;;2.17;;
2624;SDS011;1322;53.256;10.386;2023-05-20T14:16:50;2.93;;;2.63;;
2624;SDS011;1322;53.256;10.386;2023-05-20T14:19:16;3.67;;;2.70;;
2624;SDS011;1322;53.256;10.386;2023-05-20T14:21:42;2.97;;;2.37;;
2624;SDS011;1322;53.256;10.386;2023-05-20T14:24:08;3.57;;;2.13;;
2624;SDS011;1322;53.256;10.386;2023-05-20T14:26:34;3.30;;;2.57;;
2624;SDS011;1322;53.256;10.386;2023-05-20T14:29:00;3.00;;;2.20;;
2624;SDS011;1322;53.256;10.386;2023-05-20T14:31:26;4.27;;;3.13;;
2624;SDS011;1322;53.256;10.386;2023-05-20T14:33:52;3.97;;;2.20;;
2624;SDS011;1322;53.256;10.386;2023-05-20T14:36:18;4.30;;;2.60;;
2624;SDS011;1322;53.256;10.386;2023-05-20T14:38:44;2.83;;;2.43;;
2624;SDS011;1322;53.256;10.386;2023-05-20T14:41:11;3.30;;;2.60;;
2624;SDS011;1322;53.256;10.386;2023-05-20T14:43:36;4.20;;;2.70;;
2624;SDS011;1322;53.256;10.386;2023-05-20T14:46:02;2.53;;;2.33;;
2624;SDS011;1322;53.256;10.386;2023-05-20T14:48:29;2.53;;;2.20;;
2624;SDS011;1322;53.256;10.386;2023-05-20T14:50:55;3.53;;;2.80;;
2624;SDS011;1322;53.256;10.386;2023-05-20T14:53:21;5.13;;;2.20;;
2624;SDS011;1322;53.256;10.386;2023-05-20T14:55:47;3.90;;;2.57;;
2624;SDS011;1322;53.256;10.386;2023-05-20T14:58:13;2.60;;;2.10;;
2624;SDS011;1322;53.256;10.386;2023-05-20T15:00:39;3.20;;;2.47;;
2624;SDS011;1322;53.256;10.386;2023-05-20T15:03:05;3.07;;;2.17;;
2624;SDS011;1322;53.256;10.386;2023-05-20T15:05:31;3.73;;;2.83;;
2624;SDS011;1322;53.256;10.386;2023-05-20T15:07:57;3.67;;;2.60;;
2624;SDS011;1322;53.256;10.386;2023-05-20T15:10:23;4.23;;;3.20;;